createdAt,value
2022-11-02T00:01:45.545Z,97499.84
2022-11-02T00:04:13.106Z,97487.72
2022-11-02T00:06:40.650Z,97489.41
2022-11-02T00:09:08.378Z,97485.03
2022-11-02T00:11:35.501Z,97491.94
2022-11-02T00:14:03.420Z,97496.31
2022-11-02T00:16:32.929Z,97504.97
2022-11-02T00:19:01.941Z,97497.13
2022-11-02T00:21:29.462Z,97502.34
2022-11-02T00:23:58.582Z,97505.06
2022-11-02T00:26:26.702Z,97505.44
2022-11-02T00:28:55.826Z,97503.75
2022-11-02T00:31:22.921Z,97511.56
2022-11-02T00:33:52.561Z,97513.34
2022-11-02T00:36:20.346Z,97506.44
2022-11-02T00:38:47.903Z,97507.03
2022-11-02T00:41:17.640Z,97508.69
2022-11-02T00:43:45.574Z,97506.16
2022-11-02T00:46:13.099Z,97505.25
2022-11-02T00:48:40.553Z,97509.53
2022-11-02T00:51:10.322Z,97510.47
2022-11-02T00:53:38.120Z,97493.31
2022-11-02T00:56:07.474Z,97493.50
2022-11-02T00:58:34.710Z,97498.16
2022-11-02T01:01:05.373Z,97510.47
2022-11-02T01:03:33.302Z,97515.78
2022-11-02T01:06:12.019Z,97509.72
2022-11-02T01:08:40.124Z,97506.84
2022-11-02T01:11:15.720Z,97499.84
2022-11-02T01:13:43.301Z,97498.94
2022-11-02T01:16:12.029Z,97495.19
2022-11-02T01:18:39.561Z,97498.63
2022-11-02T01:21:07.992Z,97499.38
2022-11-02T01:23:38.447Z,97494.34
2022-11-02T01:26:08.508Z,97497.06
2022-11-02T01:28:36.766Z,97491.00
2022-11-02T01:31:04.197Z,97487.38
2022-11-02T01:33:32.014Z,97487.38
2022-11-02T01:35:59.588Z,97488.28
2022-11-02T01:38:27.183Z,97492.66
2022-11-02T01:40:56.171Z,97498.72
2022-11-02T01:43:25.429Z,97502.09
2022-11-02T01:45:59.192Z,97494.34
2022-11-02T01:48:31.834Z,97505.63
2022-11-02T01:51:02.554Z,97500.31
2022-11-02T01:53:30.730Z,97503.09
2022-11-02T01:56:01.687Z,97505.63
2022-11-02T01:58:30.241Z,97501.44
2022-11-02T02:00:57.748Z,97501.44
2022-11-02T02:03:26.230Z,97497.06
2022-11-02T02:06:03.452Z,97492.03
2022-11-02T02:08:33.196Z,97479.09
2022-11-02T02:11:01.582Z,97478.53
2022-11-02T02:13:29.923Z,97478.63
2022-11-02T02:16:09.441Z,97480.47
2022-11-02T02:18:43.359Z,97483.16
2022-11-02T02:21:26.251Z,97476.28
2022-11-02T02:24:15.764Z,97484.94
2022-11-02T02:27:00.035Z,97484.66
2022-11-02T02:29:37.756Z,97474.97
2022-11-02T02:32:14.275Z,97477.59
2022-11-02T02:34:50.409Z,97470.63
2022-11-02T02:37:22.418Z,97476.56
2022-11-02T02:39:57.311Z,97472.28
2022-11-02T02:42:31.236Z,97467.25
2022-11-02T02:45:10.261Z,97465.41
2022-11-02T02:47:43.525Z,97468.84
2022-11-02T02:50:16.504Z,97478.34
2022-11-02T02:52:47.509Z,97484.66
2022-11-02T02:55:19.300Z,97498.81
2022-11-02T02:57:48.580Z,97493.97
2022-11-02T03:00:19.039Z,97486.41
2022-11-02T03:02:47.304Z,97487.19
2022-11-02T03:05:25.216Z,97496.19
2022-11-02T03:07:52.260Z,97486.81
2022-11-02T03:10:22.556Z,97502.19
2022-11-02T03:13:03.804Z,97492.75
2022-11-02T03:15:40.642Z,97491.25
2022-11-02T03:18:17.267Z,97493.03
2022-11-02T03:20:54.267Z,97493.97
2022-11-02T03:23:28.421Z,97494.63
2022-11-02T03:26:02.689Z,97490.25
2022-11-02T03:28:43.588Z,97490.97
2022-11-02T03:31:18.124Z,97492.50
2022-11-02T03:33:57.269Z,97495.09
2022-11-02T03:36:32.795Z,97490.81
2022-11-02T03:39:04.932Z,97499.47
2022-11-02T03:41:34.624Z,97501.22
2022-11-02T03:44:08.174Z,97495.38
2022-11-02T03:46:40.684Z,97499.75
2022-11-02T03:49:14.391Z,97502.47
2022-11-02T03:51:45.449Z,97499.00
2022-11-02T03:54:22.890Z,97509.59
2022-11-02T03:56:53.664Z,97511.66
2022-11-02T03:59:22.392Z,97523.06
2022-11-02T04:01:53.193Z,97519.91
2022-11-02T04:04:22.585Z,97527.81
2022-11-02T04:06:50.218Z,97521.88
2022-11-02T04:09:17.930Z,97513.00
2022-11-02T04:11:45.835Z,97517.41
2022-11-02T04:14:13.582Z,97527.91
2022-11-02T04:16:41.761Z,97532.28
2022-11-02T04:19:12.176Z,97522.88
2022-11-02T04:21:39.684Z,97525.47
2022-11-02T04:24:08.825Z,97528.91
2022-11-02T04:26:35.906Z,97530.59
2022-11-02T04:29:03.197Z,97526.13
2022-11-02T04:31:31.605Z,97528.84
2022-11-02T04:33:59.204Z,97535.00
2022-11-02T04:36:30.002Z,97527.19
2022-11-02T04:38:57.775Z,97537.50
2022-11-02T04:41:25.920Z,97532.28
2022-11-02T04:43:53.933Z,97539.25
2022-11-02T04:46:23.206Z,97537.50
2022-11-02T04:48:51.376Z,97541.94
2022-11-02T04:51:19.212Z,97536.75
2022-11-02T04:53:48.636Z,97538.59
2022-11-02T04:56:16.459Z,97530.88
2022-11-02T04:58:44.017Z,97536.09
2022-11-02T05:01:14.590Z,97533.56
2022-11-02T05:03:42.114Z,97531.13
2022-11-02T05:06:11.672Z,97538.22
2022-11-02T05:08:39.193Z,97527.88
2022-11-02T05:11:09.113Z,97537.63
2022-11-02T05:13:37.066Z,97530.75
2022-11-02T05:16:05.762Z,97536.88
2022-11-02T05:18:33.251Z,97543.78
2022-11-02T05:21:01.799Z,97534.19
2022-11-02T05:23:29.383Z,97535.88
2022-11-02T05:25:57.991Z,97549.72
2022-11-02T05:28:28.679Z,97545.53
2022-11-02T05:30:58.533Z,97542.91
2022-11-02T05:33:30.362Z,97543.78
2022-11-02T05:35:58.649Z,97544.03
2022-11-02T05:38:26.498Z,97542.44
2022-11-02T05:40:53.872Z,97547.00
2022-11-02T05:43:22.336Z,97549.69
2022-11-02T05:45:56.078Z,97553.28
2022-11-02T05:48:24.326Z,97562.09
2022-11-02T05:50:56.381Z,97552.72
2022-11-02T05:53:23.534Z,97564.06
2022-11-02T05:55:51.265Z,97567.69
2022-11-02T05:58:18.564Z,97561.72
2022-11-02T06:00:45.998Z,97565.44
2022-11-02T06:03:14.869Z,97564.50
2022-11-02T06:05:42.139Z,97569.78
2022-11-02T06:08:09.704Z,97574.97
2022-11-02T06:10:36.778Z,97573.31
2022-11-02T06:13:04.920Z,97570.03
2022-11-02T06:15:33.119Z,97576.00
2022-11-02T06:18:00.173Z,97588.25
2022-11-02T06:20:29.056Z,97583.13
2022-11-02T06:22:56.508Z,97586.59
2022-11-02T06:25:23.631Z,97587.50
2022-11-02T06:27:51.891Z,97592.84
2022-11-02T06:30:19.362Z,97593.78
2022-11-02T06:32:50.441Z,97598.31
2022-11-02T06:35:18.890Z,97600.19
2022-11-02T06:37:47.905Z,97602.00
2022-11-02T06:40:15.650Z,97601.91
2022-11-02T06:42:45.270Z,97604.84
2022-11-02T06:45:17.846Z,97596.47
2022-11-02T06:47:45.109Z,97608.72
2022-11-02T06:50:12.107Z,97609.88
2022-11-02T06:52:43.351Z,97616.94
2022-11-02T06:55:12.879Z,97617.69
2022-11-02T06:57:41.010Z,97627.19
2022-11-02T07:00:11.263Z,97631.28
2022-11-02T07:02:38.360Z,97624.25
2022-11-02T07:05:06.644Z,97629.31
2022-11-02T07:07:33.839Z,97633.31
2022-11-02T07:10:01.403Z,97633.06
2022-11-02T07:12:31.616Z,97638.66
2022-11-02T07:14:58.859Z,97641.03
2022-11-02T07:17:31.901Z,97638.16
2022-11-02T07:19:59.833Z,97651.69
2022-11-02T07:22:27.195Z,97648.34
2022-11-02T07:24:54.434Z,97648.91
2022-11-02T07:27:21.475Z,97645.19
2022-11-02T07:29:50.066Z,97644.75
2022-11-02T07:32:17.379Z,97647.97
2022-11-02T07:34:44.492Z,97640.72
2022-11-02T07:37:11.729Z,97639.66
2022-11-02T07:39:39.122Z,97640.97
2022-11-02T07:44:38.541Z,97636.84
2022-11-02T07:47:07.363Z,97636.38
2022-11-02T07:49:34.389Z,97643.94
2022-11-02T07:52:01.524Z,97636.88
2022-11-02T07:54:28.459Z,97639.13
2022-11-02T07:56:55.833Z,97633.63
2022-11-02T07:59:22.863Z,97634.13
2022-11-02T08:01:50.041Z,97637.22
2022-11-02T08:04:18.760Z,97636.88
2022-11-02T08:06:45.879Z,97642.72
2022-11-02T08:09:12.875Z,97653.63
2022-11-02T08:11:39.923Z,97642.91
2022-11-02T08:14:07.089Z,97642.56
2022-11-02T08:16:34.256Z,97642.56
2022-11-02T08:19:01.374Z,97634.28
2022-11-02T08:21:30.142Z,97639.22
2022-11-02T08:23:58.641Z,97631.97
2022-11-02T08:26:26.085Z,97627.22
2022-11-02T08:28:53.616Z,97634.88
2022-11-02T08:31:21.150Z,97634.41
2022-11-02T08:33:48.945Z,97634.22
2022-11-02T08:36:16.408Z,97634.59
2022-11-02T08:38:46.020Z,97638.78
2022-11-02T08:41:13.460Z,97641.22
2022-11-02T08:43:40.978Z,97634.94
2022-11-02T08:46:14.928Z,97639.88
2022-11-02T08:48:43.515Z,97639.59
2022-11-02T08:51:10.878Z,97644.34
2022-11-02T08:53:38.547Z,97645.19
2022-11-02T08:56:08.063Z,97640.41
2022-11-02T08:58:35.346Z,97642.94
2022-11-02T09:01:02.670Z,97634.72
2022-11-02T09:03:30.255Z,97637.75
2022-11-02T09:05:59.322Z,97638.88
2022-11-02T09:08:27.202Z,97636.50
2022-11-02T09:10:58.094Z,97632.25
2022-11-02T09:13:27.553Z,97636.03
2022-11-02T09:15:56.662Z,97628.44
2022-11-02T09:18:25.138Z,97637.75
2022-11-02T09:20:52.626Z,97631.38
2022-11-02T09:23:21.695Z,97637.88
2022-11-02T09:25:50.564Z,97639.06
2022-11-02T09:28:17.869Z,97624.03
2022-11-02T09:30:47.504Z,97638.25
2022-11-02T09:33:16.478Z,97640.25
2022-11-02T09:35:46.077Z,97637.00
2022-11-02T09:38:14.241Z,97646.22
2022-11-02T09:40:45.607Z,97637.88
2022-11-02T09:43:21.538Z,97638.38
2022-11-02T09:45:57.305Z,97634.06
2022-11-02T09:48:29.359Z,97630.53
2022-11-02T09:51:03.684Z,97624.16
2022-11-02T09:53:40.007Z,97628.75
2022-11-02T09:56:10.143Z,97628.31
2022-11-02T09:58:40.485Z,97624.72
2022-11-02T10:01:29.413Z,97623.38
2022-11-02T10:04:22.281Z,97616.66
2022-11-02T10:07:03.201Z,97613.72
2022-11-02T10:09:39.688Z,97610.41
2022-11-02T10:12:12.670Z,97612.00
2022-11-02T10:14:48.332Z,97618.91
2022-11-02T10:17:21.036Z,97612.38
2022-11-02T10:19:54.170Z,97612.16
2022-11-02T10:22:25.136Z,97607.56
2022-11-02T10:24:54.916Z,97599.25
2022-11-02T10:27:25.941Z,97609.00
2022-11-02T10:29:58.208Z,97601.50
2022-11-02T10:32:27.105Z,97599.16
2022-11-02T10:34:59.099Z,97594.09
2022-11-02T10:37:54.724Z,97595.06
2022-11-02T10:40:38.540Z,97592.22
2022-11-02T10:43:18.227Z,97591.16
2022-11-02T10:46:11.708Z,97594.16
2022-11-02T10:48:49.439Z,97591.06
2022-11-02T10:51:17.613Z,97595.28
2022-11-02T10:53:47.013Z,97591.56
2022-11-02T10:56:18.072Z,97592.66
2022-11-02T10:58:52.003Z,97585.38
2022-11-02T11:01:19.784Z,97596.28
2022-11-02T11:04:21.633Z,97586.38
2022-11-02T11:06:49.447Z,97576.59
2022-11-02T11:09:18.856Z,97580.53
2022-11-02T11:11:55.057Z,97576.34
2022-11-02T11:20:21.599Z,97568.00
2022-11-02T11:23:08.870Z,97559.28
2022-11-02T11:25:36.366Z,97571.75
2022-11-02T11:28:23.069Z,97571.28
2022-11-02T11:31:04.312Z,97552.41
2022-11-02T11:33:34.156Z,97555.16
2022-11-02T11:36:03.143Z,97554.06
2022-11-02T11:38:30.351Z,97551.81
2022-11-02T11:40:59.859Z,97545.13
2022-11-02T11:43:29.720Z,97552.41
2022-11-02T11:46:05.238Z,97547.38
2022-11-02T11:48:37.661Z,97543.81
2022-11-02T11:51:26.631Z,97539.88
2022-11-02T11:54:25.526Z,97541.88
2022-11-02T11:56:55.219Z,97536.13
2022-11-02T11:59:31.692Z,97549.63
2022-11-02T12:02:00.823Z,97538.03
2022-11-02T12:04:30.992Z,97534.41
2022-11-02T12:07:26.811Z,97532.91
2022-11-02T12:10:05.385Z,97526.53
2022-11-02T12:12:46.585Z,97521.16
2022-11-02T12:15:35.858Z,97528.78
2022-11-02T12:18:26.445Z,97522.91
2022-11-02T12:21:14.287Z,97523.16
2022-11-02T12:24:13.615Z,97517.66
2022-11-02T12:26:57.106Z,97513.75
2022-11-02T12:29:50.571Z,97516.13
2022-11-02T12:32:37.609Z,97515.16
2022-11-02T12:35:29.705Z,97508.56
2022-11-02T12:38:21.968Z,97511.53
2022-11-02T12:41:02.302Z,97505.19
2022-11-02T12:43:39.984Z,97504.22
2022-11-02T12:46:16.894Z,97504.34
2022-11-02T12:48:54.157Z,97495.88
2022-11-02T12:51:25.247Z,97498.13
2022-11-02T12:53:57.666Z,97496.56
2022-11-02T12:56:31.650Z,97482.09
2022-11-02T12:59:00.594Z,97483.91
2022-11-02T13:01:32.683Z,97479.72
2022-11-02T13:04:09.884Z,97480.31
2022-11-02T13:06:42.341Z,97487.00
2022-11-02T13:09:14.606Z,97492.69
2022-11-02T13:11:47.410Z,97493.03
2022-11-02T13:14:19.328Z,97488.47
2022-11-02T13:16:53.664Z,97474.25
2022-11-02T13:19:24.161Z,97494.44
2022-11-02T13:21:54.911Z,97476.16
2022-11-02T13:24:30.774Z,97490.28
2022-11-02T13:29:56.305Z,97475.19
2022-11-02T13:32:34.025Z,97469.94
2022-11-02T13:35:11.854Z,97476.63
2022-11-02T13:37:44.201Z,97472.44
2022-11-02T13:40:19.121Z,97473.91
2022-11-02T13:43:19.683Z,97462.59
2022-11-02T13:46:25.587Z,97471.50
2022-11-02T13:49:00.366Z,97470.16
2022-11-02T13:51:35.167Z,97470.97
2022-11-02T13:54:06.552Z,97484.00
2022-11-02T13:56:37.907Z,97476.38
2022-11-02T13:59:08.183Z,97490.00
2022-11-02T14:01:39.917Z,97479.59
2022-11-02T14:04:11.689Z,97482.22
2022-11-02T14:06:54.122Z,97485.00
2022-11-02T14:09:27.204Z,97473.59
2022-11-02T14:12:13.914Z,97483.56
2022-11-02T14:14:41.638Z,97482.28
2022-11-02T14:17:14.499Z,97483.19
2022-11-02T14:20:31.549Z,97493.47
2022-11-02T14:23:31.781Z,97487.53
2022-11-02T14:25:59.229Z,97500.56
2022-11-02T14:28:44.646Z,97494.56
2022-11-02T14:31:44.222Z,97498.88
2022-11-02T14:34:37.856Z,97497.69
2022-11-02T14:37:26.560Z,97495.31
2022-11-02T14:40:01.433Z,97498.19
2022-11-02T14:42:51.562Z,97497.50
2022-11-02T14:45:30.558Z,97506.94
2022-11-02T14:48:01.834Z,97508.03
2022-11-02T14:50:29.601Z,97508.03
2022-11-02T14:53:04.706Z,97506.34
2022-11-02T14:55:34.368Z,97515.22
2022-11-02T14:58:10.557Z,97509.09
2022-11-02T15:00:55.062Z,97506.72
2022-11-02T15:03:32.956Z,97510.34
2022-11-02T15:06:04.035Z,97509.75
2022-11-02T15:08:35.993Z,97518.59
2022-11-02T15:11:36.509Z,97518.03
2022-11-02T15:14:28.503Z,97512.28
2022-11-02T15:16:55.863Z,97523.16
2022-11-02T15:19:41.308Z,97524.03
2022-11-02T15:22:32.700Z,97516.50
2022-11-02T15:25:06.070Z,97529.03
2022-11-02T15:27:35.577Z,97529.78
2022-11-02T15:30:05.174Z,97530.28
2022-11-02T15:32:40.305Z,97535.91
2022-11-02T15:35:17.238Z,97542.50
2022-11-02T15:38:11.192Z,97531.63
2022-11-02T15:40:47.164Z,97542.34
2022-11-02T15:43:29.780Z,97544.75
2022-11-02T15:46:06.636Z,97544.31
2022-11-02T15:48:47.144Z,97544.66
2022-11-02T15:51:22.323Z,97547.63
2022-11-02T15:54:13.898Z,97541.66
2022-11-02T15:56:54.851Z,97548.91
2022-11-02T15:59:46.985Z,97551.31
2022-11-02T16:02:33.521Z,97557.03
2022-11-02T16:05:02.807Z,97553.06
2022-11-02T16:07:43.629Z,97552.38
2022-11-02T16:10:23.787Z,97552.84
2022-11-02T16:13:12.837Z,97547.13
2022-11-02T16:15:42.186Z,97558.91
2022-11-02T16:18:28.634Z,97555.91
2022-11-02T16:20:59.025Z,97556.97
2022-11-02T16:23:29.623Z,97560.53
2022-11-02T16:25:59.571Z,97554.59
2022-11-02T16:28:32.438Z,97555.63
2022-11-02T16:31:19.305Z,97549.09
2022-11-02T16:33:49.290Z,97562.53
2022-11-02T16:36:19.832Z,97544.03
2022-11-02T16:38:56.565Z,97540.09
2022-11-02T16:41:26.608Z,97538.50
2022-11-02T16:44:00.656Z,97539.72
2022-11-02T16:46:41.230Z,97548.63
2022-11-02T16:49:15.406Z,97553.72
2022-11-02T16:51:49.392Z,97553.63
2022-11-02T16:54:31.021Z,97558.72
2022-11-02T16:57:06.105Z,97565.44
2022-11-02T16:59:39.568Z,97556.16
2022-11-02T17:02:12.803Z,97558.66
2022-11-02T17:04:43.193Z,97562.66
2022-11-02T17:07:16.623Z,97571.81
2022-11-02T17:09:45.088Z,97572.03
2022-11-02T17:12:15.781Z,97580.00
2022-11-02T17:14:47.110Z,97579.47
2022-11-02T17:17:36.804Z,97579.69
2022-11-02T17:20:20.339Z,97592.56
2022-11-02T17:22:57.991Z,97585.88
2022-11-02T17:25:32.937Z,97584.53
2022-11-02T17:28:04.225Z,97577.31
2022-11-02T17:30:53.314Z,97581.94
2022-11-02T17:33:34.641Z,97578.34
2022-11-02T17:36:07.621Z,97586.53
2022-11-02T17:38:42.099Z,97583.19
2022-11-02T17:41:16.426Z,97580.47
2022-11-02T17:43:46.306Z,97589.34
2022-11-02T17:46:21.801Z,97590.84
2022-11-02T17:48:49.227Z,97589.59
2022-11-02T17:51:22.543Z,97604.03
2022-11-02T17:53:53.691Z,97599.97
2022-11-02T17:56:22.279Z,97599.66
2022-11-02T17:58:53.723Z,97601.50
2022-11-02T18:01:43.188Z,97603.91
2022-11-02T18:04:12.452Z,97611.78
2022-11-02T18:06:41.224Z,97600.91
2022-11-02T18:09:09.080Z,97608.03
2022-11-02T18:11:39.947Z,97595.56
2022-11-02T18:14:17.487Z,97600.91
2022-11-02T18:16:50.418Z,97595.97
2022-11-02T18:19:24.946Z,97600.47
2022-11-02T18:21:53.116Z,97599.06
2022-11-02T18:24:26.225Z,97606.09
2022-11-02T18:26:54.914Z,97607.13
2022-11-02T18:29:25.697Z,97604.63
2022-11-02T18:31:56.818Z,97598.66
2022-11-02T18:34:25.459Z,97601.06
2022-11-02T18:36:53.897Z,97605.34
2022-11-02T18:39:22.526Z,97607.84
2022-11-02T18:41:50.866Z,97603.59
2022-11-02T18:44:19.759Z,97606.84
2022-11-02T18:46:49.574Z,97605.25
2022-11-02T18:49:20.804Z,97601.16
2022-11-02T18:51:48.635Z,97603.22
2022-11-02T18:54:16.509Z,97605.66
2022-11-02T18:56:44.516Z,97613.38
2022-11-02T18:59:12.960Z,97601.91
2022-11-02T19:01:42.125Z,97604.13
2022-11-02T19:04:17.144Z,97608.44
2022-11-02T19:06:46.834Z,97611.16
2022-11-02T19:09:16.257Z,97612.16
2022-11-02T19:11:45.280Z,97615.59
2022-11-02T19:14:13.081Z,97620.19
2022-11-02T19:16:42.417Z,97625.34
2022-11-02T19:19:12.425Z,97626.38
2022-11-02T19:21:41.866Z,97634.88
2022-11-02T19:24:12.365Z,97633.09
2022-11-02T19:26:40.799Z,97635.53
2022-11-02T19:29:10.175Z,97635.63
2022-11-02T19:31:41.434Z,97646.50
2022-11-02T19:34:12.080Z,97644.09
2022-11-02T19:36:42.019Z,97639.72
2022-11-02T19:39:13.277Z,97637.00
2022-11-02T19:41:42.163Z,97639.94
2022-11-02T19:44:11.253Z,97627.94
2022-11-02T19:46:39.029Z,97630.03
2022-11-02T19:49:08.651Z,97635.69
2022-11-02T19:51:36.576Z,97631.69
2022-11-02T19:54:06.909Z,97625.72
2022-11-02T19:56:38.235Z,97625.63
2022-11-02T19:59:10.562Z,97628.63
2022-11-02T20:01:40.024Z,97633.50
2022-11-02T20:04:10.239Z,97631.66
2022-11-02T20:06:40.660Z,97624.13
2022-11-02T20:09:16.655Z,97626.94
2022-11-02T20:11:49.460Z,97623.66
2022-11-02T20:14:17.636Z,97628.34
2022-11-02T20:16:58.754Z,97625.00
2022-11-02T20:19:32.835Z,97636.91
2022-11-02T20:22:00.807Z,97637.22
2022-11-02T20:24:30.475Z,97632.41
2022-11-02T20:27:00.648Z,97642.00
2022-11-02T20:29:28.625Z,97640.75
2022-11-02T20:31:57.926Z,97643.47
2022-11-02T20:34:26.533Z,97649.69
2022-11-02T20:36:54.700Z,97636.84
2022-11-02T20:39:22.721Z,97648.22
2022-11-02T20:41:51.007Z,97646.34
2022-11-02T20:44:21.406Z,97646.47
2022-11-02T20:46:52.999Z,97649.16
2022-11-02T20:49:48.817Z,97646.34
2022-11-02T20:52:11.004Z,97650.91
2022-11-02T20:54:38.395Z,97643.38
2022-11-02T20:57:06.515Z,97642.75
2022-11-02T20:59:38.046Z,97650.47
2022-11-02T21:02:06.408Z,97646.09
2022-11-02T21:04:38.115Z,97636.41
2022-11-02T21:07:07.267Z,97631.16
2022-11-02T21:09:35.972Z,97633.88
2022-11-02T21:12:03.657Z,97639.09
2022-11-02T21:14:30.934Z,97637.94
2022-11-02T21:17:00.405Z,97624.25
2022-11-02T21:19:27.909Z,97626.88
2022-11-02T21:21:59.330Z,97636.13
2022-11-02T21:24:27.676Z,97633.88
2022-11-02T21:26:55.388Z,97630.25
2022-11-02T21:29:23.251Z,97638.00
2022-11-02T21:31:50.676Z,97625.97
2022-11-02T21:34:20.431Z,97632.97
2022-11-02T21:36:48.302Z,97632.03
2022-11-02T21:39:16.139Z,97641.53
2022-11-02T21:41:43.651Z,97634.56
2022-11-02T21:44:10.935Z,97639.88
2022-11-02T21:46:38.161Z,97635.38
2022-11-02T21:49:05.512Z,97632.78
2022-11-02T21:51:34.121Z,97632.78
2022-11-02T21:54:01.181Z,97640.59
2022-11-02T21:56:28.652Z,97635.47
2022-11-02T21:58:56.957Z,97632.03
2022-11-02T22:01:25.936Z,97636.41
2022-11-02T22:03:54.368Z,97624.50
2022-11-02T22:06:25.915Z,97638.38
2022-11-02T22:08:58.102Z,97636.50
2022-11-02T22:11:26.328Z,97631.28
2022-11-02T22:13:55.033Z,97628.66
2022-11-02T22:16:24.771Z,97641.44
2022-11-02T22:18:53.634Z,97627.75
2022-11-02T22:21:21.118Z,97627.66
2022-11-02T22:23:49.650Z,97633.50
2022-11-02T22:26:19.638Z,97627.34
2022-11-02T22:28:47.977Z,97637.06
2022-11-02T22:31:16.976Z,97630.25
2022-11-02T22:33:45.547Z,97620.00
2022-11-02T22:36:14.863Z,97625.31
2022-11-02T22:38:42.642Z,97635.66
2022-11-02T22:41:09.983Z,97633.25
2022-11-02T22:43:39.112Z,97636.88
2022-11-02T22:46:08.071Z,97633.44
2022-11-02T22:48:36.046Z,97639.13
2022-11-02T22:51:05.131Z,97640.69
2022-11-02T22:53:32.961Z,97638.81
2022-11-02T22:56:01.913Z,97632.69
2022-11-02T22:58:32.089Z,97639.59
2022-11-02T23:01:00.858Z,97634.47
2022-11-02T23:03:30.832Z,97634.56
2022-11-02T23:06:01.049Z,97639.78
2022-11-02T23:08:29.652Z,97640.41
2022-11-02T23:10:58.765Z,97635.38
2022-11-02T23:13:27.271Z,97636.97
2022-11-02T23:16:06.415Z,97630.78
2022-11-02T23:18:33.847Z,97641.91
2022-11-02T23:21:01.113Z,97634.16
2022-11-02T23:23:28.411Z,97631.38
2022-11-02T23:25:56.094Z,97632.38
2022-11-02T23:30:57.154Z,97622.31
2022-11-02T23:33:31.055Z,97621.59
2022-11-02T23:36:00.518Z,97627.75
2022-11-02T23:38:28.011Z,97628.56
2022-11-02T23:40:55.284Z,97628.66
2022-11-02T23:43:22.974Z,97630.34
2022-11-02T23:45:50.874Z,97636.31
2022-11-02T23:48:18.395Z,97633.59
2022-11-02T23:50:49.791Z,97632.69
2022-11-02T23:53:19.491Z,97638.72
2022-11-02T23:55:47.368Z,97638.63
2022-11-02T23:58:14.782Z,97636.97
